Weather observations for the past three days for
Clemson, Clemson-Oconee County Airport
| Date | Time (edt) | Wind (mph) | Vis. (mi.) | Weather | Sky Cond. | Temperature (ºF) | Relative Humidity | Wind Chill (°F) | Heat Index (°F) | Pressure | Precipitation (in) | ||||||
|---|---|---|---|---|---|---|---|---|---|---|---|---|---|---|---|---|---|
| Air | Dwpt | 6 hour | altimeter (in) | sea level (mb) | 1 hr | 3 hr | 6 hr | ||||||||||
| Max. | Min. | ||||||||||||||||
| 06 | 05:54 | Calm | 10.00 | Overcast | SCT065 OVC080 | 64 | 53.1 | 68% | 29.92 | 1012.2 | |||||||
| 06 | 04:54 | S 5 | 10.00 | Overcast | BKN055 OVC085 | 64.9 | 52 | 63% | 29.93 | 1012.5 | |||||||
| 06 | 03:54 | Vrbl 5 | 10.00 | Overcast | FEW049 FEW060 OVC090 | 66 | 51.1 | 59% | 29.93 | 1012.6 | |||||||
| 06 | 02:54 | Vrbl 3 | 10.00 | Overcast | OVC060 | 68 | 48.9 | 51% | 29.94 | 1012.8 | |||||||
| 06 | 01:54 | Vrbl 3 | 10.00 | Overcast | BKN070 OVC080 | 69.1 | 48 | 73.9 | 66 | 47% | 29.93 | 1012.6 | |||||
| 06 | 00:54 | SW 3 | 10.00 | Overcast | OVC085 | 68 | 50 | 53% | 29.94 | 1013.0 | |||||||
| 05 | 23:54 | Calm | 10.00 | Partly Cloudy | SCT095 | 66.9 | 51.1 | 57% | 29.95 | 1013.3 | |||||||
| 05 | 22:54 | Calm | 10.00 | Partly Cloudy | SCT120 | 69.1 | 50 | 51% | 29.95 | 1013.5 | |||||||
| 05 | 21:54 | Calm | 10.00 | A Few Clouds | FEW100 | 71.1 | 51.1 | 49% | 29.93 | 1012.8 | |||||||
| 05 | 20:54 | Calm | 10.00 | Mostly Cloudy | FEW070 BKN090 BKN120 | 72 | 48.9 | 44% | 29.94 | 1013.1 | |||||||
| 05 | 19:54 | SW 5 | 10.00 | Fair | CLR | 73.9 | 46.9 | 80.1 | 73.9 | 38% | 29.94 | 1013.1 | |||||
| 05 | 18:54 | SW 6 | 10.00 | A Few Clouds | FEW075 | 77 | 46 | 33% | 78 | 29.93 | 1012.8 | ||||||
| 05 | 17:54 | Vrbl 5 | 10.00 | Fair | CLR | 78.1 | 46 | 32% | 78 | 29.93 | 1012.8 | ||||||
| 05 | 16:54 | Calm | 10.00 | Fair | CLR | 79 | 45 | 30% | 79 | 29.94 | 1013.1 | ||||||
| 05 | 15:54 | Vrbl 7 | 10.00 | Fair | CLR | 78.1 | 45 | 31% | 78 | 29.96 | 1013.6 | ||||||
| 05 | 14:54 | Vrbl 6 | 10.00 | Partly Cloudy | SCT075 | 77 | 46 | 33% | 78 | 29.99 | 1014.7 | ||||||
| 05 | 13:54 | W 8 G 24 | 10.00 | A Few Clouds | FEW070 | 77 | 44.1 | 77 | 55 | 31% | 78 | 30 | 1015.2 | ||||
| 05 | 12:54 | SW 9 | 10.00 | Fair | CLR | 75 | 46 | 36% | 77 | 30.02 | 1015.9 | ||||||
| 05 | 11:54 | Vrbl 6 | 10.00 | Fair | CLR | 71.1 | 50 | 47% | 30.03 | 1016.3 | |||||||
| 05 | 10:54 | Calm | 10.00 | Fair | CLR | 66.9 | 48 | 51% | 30.05 | 1016.7 | |||||||
| 05 | 09:54 | Calm | 10.00 | Fair | CLR | 63 | 48.9 | 60% | 30.03 | 1016.4 | |||||||
| 05 | 08:54 | Vrbl 5 | 10.00 | Fair | CLR | 60.1 | 48.9 | 67% | 30.02 | 1016.1 | |||||||
| 05 | 07:54 | Calm | 10.00 | Fair | CLR | 55 | 51.1 | 59 | 52 | 87% | 30.01 | 1015.7 | |||||
| 05 | 06:54 | Calm | 10.00 | Fair | CLR | 52 | 48.9 | 89% | 30 | 1015.4 | |||||||
| 05 | 05:54 | Calm | 10.00 | Fair | CLR | 54 | 46.9 | 77% | 29.99 | 1015.0 | |||||||
| 05 | 04:54 | Calm | 10.00 | Fair | CLR | 53.1 | 48 | 83% | 29.99 | 1014.9 | |||||||
| 05 | 03:54 | SE 7 | 10.00 | Fair | CLR | 54 | 48 | 80% | 29.98 | 1014.6 | |||||||
| 05 | 02:54 | W 5 | 10.00 | Fair | CLR | 57.9 | 44.1 | 60% | 29.98 | 1014.4 | |||||||
| 05 | 01:54 | Vrbl 3 | 10.00 | Fair | CLR | 57.9 | 45 | 71.1 | 57 | 62% | 29.98 | 1014.6 | |||||
| 05 | 00:54 | Calm | 10.00 | Fair | CLR | 60.1 | 45 | 58% | 29.99 | 1014.8 | |||||||
| 04 | 23:54 | Calm | 10.00 | Fair | CLR | 60.1 | 45 | 58% | 29.99 | 1014.8 | |||||||
| 04 | 22:54 | Calm | 10.00 | Fair | CLR | 64 | 45 | 50% | 29.99 | 1015.0 | |||||||
| 04 | 21:54 | Calm | 10.00 | Fair | CLR | 66.9 | 45 | 45% | 29.98 | 1014.6 | |||||||
| 04 | 20:54 | Calm | 10.00 | Fair | CLR | 66.9 | 45 | 45% | 29.97 | 1014.2 | |||||||
| 04 | 19:54 | Calm | 10.00 | Fair | CLR | 71.1 | 46 | 77 | 71.1 | 41% | 29.96 | 1013.9 | |||||
| 04 | 18:54 | Vrbl 3 | 10.00 | Fair | CLR | 73.9 | 44.1 | 34% | 29.95 | 1013.6 | |||||||
| 04 | 17:54 | Calm | 10.00 | Fair | CLR | 75 | 46 | 36% | 77 | 29.95 | 1013.7 | ||||||
| 04 | 16:54 | Vrbl 5 | 10.00 | Fair | CLR | 75.9 | 43 | 31% | 77 | 29.95 | 1013.7 | ||||||
| 04 | 15:54 | Calm | 10.00 | Fair | CLR | 75.9 | 39 | 26% | 77 | 29.97 | 1014.1 | ||||||
| 04 | 14:54 | Vrbl 7 | 10.00 | Fair | CLR | 75 | 42.1 | 31% | 77 | 29.99 | 1014.9 | ||||||
| 04 | 13:54 | Vrbl 3 | 10.00 | NULL | NULL | 73 | 41 | 73.9 | 51.1 | 32% | 30.01 | 1015.6 | |||||
| 04 | 12:54 | Vrbl 3 | 10.00 | Fair | CLR | 71.1 | 43 | 36% | 30.03 | 1016.1 | |||||||
| 04 | 11:54 | Vrbl 6 | 10.00 | Fair | CLR | 68 | 43 | 40% | 30.05 | 1017.1 | |||||||
| 04 | 10:54 | SW 3 | 10.00 | Fair | CLR | 66 | 41 | 40% | 30.06 | 1017.2 | |||||||
| 04 | 09:54 | Vrbl 3 | 10.00 | Fair | CLR | 63 | 39.9 | 43% | 30.06 | 1017.5 | |||||||
| 04 | 08:54 | W 5 | 10.00 | Fair | CLR | 57 | 43 | 60% | 30.06 | 1017.2 | |||||||
| 04 | 07:54 | W 5 | 10.00 | Fair | CLR | 50 | 39.9 | 54 | 46 | 68% | 49 | 30.05 | 1017.2 | ||||
| 04 | 06:54 | W 5 | 10.00 | Fair | CLR | 46.9 | 39 | 74% | 45 | 30.05 | 1017.0 | ||||||
| 04 | 05:54 | Calm | 10.00 | Fair | CLR | 46.9 | 39 | 74% | 30.04 | 1016.9 | |||||||
| 04 | 04:54 | W 9 | 10.00 | Fair | CLR | 50 | 39 | 66% | 47 | 30.04 | 1016.6 | ||||||
| 04 | 03:54 | SW 7 | 10.00 | Fair | CLR | 52 | 37.9 | 59% | 30.03 | 1016.4 | |||||||
| 04 | 02:54 | SW 7 | 10.00 | Fair | CLR | 53.1 | 37.9 | 57% | 30.04 | 1016.6 | |||||||
| 04 | 01:54 | W 8 | 10.00 | Fair | CLR | 54 | 37.9 | 64.9 | 53.1 | 55% | 30.05 | 1017.1 | |||||
| 04 | 00:54 | W 9 | 10.00 | Fair | CLR | 55 | 37.9 | 53% | 30.04 | 1016.8 | |||||||
| 03 | 23:54 | SW 7 | 10.00 | Fair | CLR | 55.9 | 37.9 | 51% | 30.04 | 1016.9 | |||||||
| 03 | 22:54 | SW 7 | 10.00 | Fair | CLR | 59 | 37.9 | 46% | 30.04 | 1016.7 | |||||||
| 03 | 21:54 | Vrbl 3 | 10.00 | Fair | CLR | 60.1 | 37.9 | 44% | 30.02 | 1016.2 | |||||||
| 03 | 20:54 | Vrbl 3 | 10.00 | Fair | CLR | 62.1 | 37.9 | 41% | 30.01 | 1015.8 | |||||||
| 03 | 19:54 | Calm | 10.00 | Fair | CLR | 64.9 | 37.9 | 70 | 64 | 37% | 29.99 | 1015.3 | |||||
| 03 | 18:54 | Calm | 10.00 | Fair | CLR | 68 | 36 | 31% | 30 | 1015.4 | |||||||
| 03 | 17:54 | Vrbl 3 | 10.00 | Fair | CLR | 69.1 | 37 | 31% | 30 | 1015.6 | |||||||
| 03 | 16:54 | Vrbl 5 G 17 | 10.00 | Fair | CLR | 69.1 | 36 | 30% | 30.02 | 1016.1 | |||||||
| 03 | 15:54 | Vrbl 5 | 10.00 | Fair | CLR | 69.1 | 37.9 | 32% | 30.05 | 1017.2 | |||||||
| 03 | 14:54 | W 8 | 10.00 | Fair | CLR | 66 | 35.1 | 32% | 30.09 | 1018.4 | |||||||
| 03 | 13:54 | W 7 | 10.00 | Fair | CLR | 64 | 37.9 | 64 | 48 | 38% | 30.1 | 1018.9 | |||||
| 03 | 12:54 | Vrbl 3 | 10.00 | Fair | CLR | 62.1 | 37.9 | 41% | 30.12 | 1019.8 | |||||||
| 03 | 11:54 | Vrbl 7 | 10.00 | Fair | CLR | 60.1 | 37.9 | 44% | 30.14 | 1020.4 | |||||||
| 03 | 10:54 | Vrbl 3 | 10.00 | A Few Clouds | FEW036 | 59 | 39.9 | 49% | 30.14 | 1020.3 | |||||||
| 03 | 09:54 | Calm | 10.00 | Fair | CLR | 55.9 | 41 | 57% | 30.14 | 1020.1 | |||||||
| 03 | 08:54 | N 3 | 10.00 | Fair | CLR | 51.1 | 44.1 | 77% | 30.13 | 1020.2 | |||||||
| 03 | 07:54 | Calm | 10.00 | Fair | CLR | 48 | 43 | 50 | 41 | 83% | 30.12 | 1019.8 | |||||
| 03 | 06:54 | N 3 | 10.00 | Fair | CLR | 42.1 | 39.9 | 92% | 30.1 | 1019.1 | |||||||
| Date | Time (edt) | Wind (mph) | Vis. (mi.) | Weather | Sky Cond. | Air | Dwpt | Max. | Min. | Relative Humidity | Wind Chill (°F) | Heat Index (°F) | altimeter (in) | sea level (mb) | 1 hr | 3 hr | 6 hr |
| 6 hour | |||||||||||||||||
| Temperature (ºF) | Pressure | Precipitation (in) | |||||||||||||||